Thomas, New Mexico
Current Conditions -  °F | °C
As of 2:55 AM on Wednesday 22 Oct 2014 (Local Time) from KCAO Reporting Station
Overcast Overcast  
Wind Chill: 55°   Ceiling: 12000
Heat Index: 55°   Visibility: 10mi
Dew Point: 51°   Wind: 17mph
Humidity: 86%   Direction: 200°SSW
Pressure: 30.05"   Gusts: NA
Location:  36.2639°N, 103.376°W
Report Text: KCAO 220855Z AUTO 20015KT 10SM FEW090 OVC120 13/11 A3005 RMK AO2 SLP129 T01280106 58004
Loading
Personal Weather Stations






























Interactive Weather Map
Tropical Storm Tracking
New forecast layout! Learn more

10-Day Weather Forecast

Advertisements
Track Severe Weather on mobile